createdAt,value
2017-08-14T00:00:56.143Z,0.80
2017-08-14T00:03:23.633Z,0.80
2017-08-14T00:05:51.920Z,0.87
2017-08-14T00:08:19.407Z,1.27
2017-08-14T00:10:46.935Z,0.60
2017-08-14T00:13:14.427Z,0.80
2017-08-14T00:15:41.921Z,1.10
2017-08-14T00:18:09.456Z,0.80
2017-08-14T00:20:37.148Z,0.97
2017-08-14T00:23:04.685Z,0.90
2017-08-14T00:25:32.204Z,0.90
2017-08-14T00:27:59.726Z,0.90
2017-08-14T00:30:28.029Z,0.87
2017-08-14T00:32:55.597Z,0.70
2017-08-14T00:35:23.201Z,1.30
2017-08-14T00:37:50.719Z,0.90
2017-08-14T00:40:18.592Z,1.00
2017-08-14T00:42:46.133Z,0.90
2017-08-14T00:45:13.621Z,1.07
2017-08-14T00:47:41.155Z,0.90
2017-08-14T00:50:08.648Z,0.80
2017-08-14T00:52:36.129Z,1.10
2017-08-14T00:55:04.411Z,0.70
2017-08-14T00:57:31.898Z,0.90
2017-08-14T00:59:59.454Z,1.30
2017-08-14T01:02:26.944Z,0.90
2017-08-14T01:04:54.434Z,1.00
2017-08-14T01:07:21.996Z,1.17
2017-08-14T01:09:49.483Z,0.83
2017-08-14T01:12:16.977Z,1.10
2017-08-14T01:14:44.492Z,1.13
2017-08-14T01:17:12.007Z,0.90
2017-08-14T01:19:40.287Z,1.00
2017-08-14T01:22:08.539Z,0.90
2017-08-14T01:24:36.061Z,0.80
2017-08-14T01:27:03.552Z,0.70
2017-08-14T01:29:31.079Z,0.83
2017-08-14T01:31:58.573Z,1.10
2017-08-14T01:34:26.055Z,0.80
2017-08-14T01:36:53.571Z,0.80
2017-08-14T01:39:21.065Z,1.00
2017-08-14T01:41:49.341Z,1.10
2017-08-14T01:44:16.834Z,0.80
2017-08-14T01:46:44.356Z,0.67
2017-08-14T01:49:11.847Z,0.80
2017-08-14T01:51:39.383Z,1.00
2017-08-14T01:54:06.880Z,0.97
2017-08-14T01:56:34.369Z,1.00
2017-08-14T01:59:02.661Z,0.90
2017-08-14T02:01:30.144Z,0.70
2017-08-14T02:03:57.663Z,1.00
2017-08-14T02:06:25.149Z,1.07
2017-08-14T02:08:52.652Z,1.10
2017-08-14T02:11:20.170Z,1.03
2017-08-14T02:13:47.650Z,0.80
2017-08-14T02:16:15.173Z,1.23
2017-08-14T02:18:42.659Z,1.00
2017-08-14T02:21:10.147Z,1.00
2017-08-14T02:23:38.430Z,0.80
2017-08-14T02:26:06.684Z,1.10
2017-08-14T02:28:34.180Z,0.90
2017-08-14T02:31:01.704Z,1.10
2017-08-14T02:33:29.207Z,1.00
2017-08-14T02:35:56.696Z,1.00
2017-08-14T02:38:24.208Z,1.23
2017-08-14T02:40:51.732Z,0.97
2017-08-14T02:43:19.992Z,1.00
2017-08-14T02:45:47.525Z,1.07
2017-08-14T02:48:15.026Z,0.97
2017-08-14T02:50:43.286Z,0.90
2017-08-14T02:53:10.809Z,1.30
2017-08-14T02:55:38.296Z,0.90
2017-08-14T02:58:05.822Z,0.93
2017-08-14T03:00:33.313Z,0.90
2017-08-14T03:03:00.828Z,1.00
2017-08-14T03:05:28.344Z,1.00
2017-08-14T03:07:56.603Z,1.00
2017-08-14T03:10:24.125Z,1.17
2017-08-14T03:12:51.611Z,0.90
2017-08-14T03:15:19.141Z,0.90
2017-08-14T03:17:46.654Z,0.87
2017-08-14T03:20:14.905Z,1.00
2017-08-14T03:22:42.430Z,0.90
2017-08-14T03:25:09.920Z,1.47
2017-08-14T03:27:37.403Z,1.07
2017-08-14T03:30:05.685Z,1.10
2017-08-14T03:32:33.171Z,0.87
2017-08-14T03:35:00.684Z,0.93
2017-08-14T03:37:28.958Z,1.07
2017-08-14T03:39:57.211Z,1.00
2017-08-14T03:42:24.745Z,1.30
2017-08-14T03:44:52.232Z,1.20
2017-08-14T03:47:19.719Z,1.20
2017-08-14T03:49:47.242Z,1.10
2017-08-14T03:52:14.736Z,0.90
2017-08-14T03:54:42.278Z,1.00
2017-08-14T03:57:10.531Z,1.00
2017-08-14T03:59:38.015Z,1.00
2017-08-14T04:02:05.523Z,1.00
2017-08-14T04:04:33.012Z,1.20
2017-08-14T04:07:01.306Z,0.80
2017-08-14T04:09:28.795Z,1.00
2017-08-14T04:11:56.273Z,1.00
2017-08-14T04:14:23.781Z,0.90
2017-08-14T04:16:51.269Z,1.23
2017-08-14T04:19:18.800Z,1.33
2017-08-14T04:21:46.278Z,0.90
2017-08-14T04:24:13.768Z,1.00
2017-08-14T04:26:41.278Z,1.00
2017-08-14T04:29:08.765Z,1.00
2017-08-14T04:31:36.268Z,0.73
2017-08-14T04:34:03.755Z,0.90
2017-08-14T04:36:31.260Z,0.93
2017-08-14T04:38:59.543Z,0.90
2017-08-14T04:41:27.831Z,1.20
2017-08-14T04:43:56.088Z,1.13
2017-08-14T04:46:24.338Z,1.00
2017-08-14T04:48:51.878Z,0.97
2017-08-14T04:51:19.356Z,0.90
2017-08-14T04:53:46.883Z,0.80
2017-08-14T04:56:14.372Z,1.17
2017-08-14T04:58:41.859Z,0.80
2017-08-14T05:01:10.121Z,1.00
2017-08-14T05:06:12.292Z,0.83
2017-08-14T05:08:39.779Z,0.90
2017-08-14T05:11:07.267Z,0.90
2017-08-14T05:13:34.767Z,0.93
2017-08-14T05:16:03.027Z,0.80
2017-08-14T05:18:30.531Z,0.73
2017-08-14T05:20:58.020Z,0.80
2017-08-14T05:23:25.535Z,1.23
2017-08-14T05:25:53.039Z,0.80
2017-08-14T05:28:20.575Z,0.87
2017-08-14T05:30:48.131Z,0.80
2017-08-14T05:33:15.611Z,0.70
2017-08-14T05:35:43.108Z,0.70
2017-08-14T05:38:10.631Z,1.00
2017-08-14T05:40:38.118Z,1.10
2017-08-14T05:43:05.610Z,0.80
2017-08-14T05:45:33.119Z,1.10
2017-08-14T05:48:00.640Z,0.90
2017-08-14T05:50:28.147Z,0.80
2017-08-14T05:52:55.650Z,0.90
2017-08-14T05:55:23.146Z,1.10
2017-08-14T05:57:50.684Z,0.80
2017-08-14T06:00:18.156Z,1.00
2017-08-14T06:02:45.656Z,0.90
2017-08-14T06:05:13.147Z,0.73
2017-08-14T06:07:40.666Z,0.80
2017-08-14T06:10:08.172Z,0.80
2017-08-14T06:12:35.656Z,1.03
2017-08-14T06:15:03.934Z,1.03
2017-08-14T06:17:32.205Z,0.70
2017-08-14T06:20:00.492Z,0.80
2017-08-14T06:22:27.975Z,0.80
2017-08-14T06:24:55.479Z,0.80
2017-08-14T06:27:22.974Z,0.80
2017-08-14T06:29:50.468Z,0.93
2017-08-14T06:32:17.987Z,0.90
2017-08-14T06:34:45.474Z,1.00
2017-08-14T06:37:12.955Z,0.97
2017-08-14T06:39:40.450Z,1.00
2017-08-14T06:42:07.951Z,1.00
2017-08-14T06:44:35.464Z,0.80
2017-08-14T06:47:02.967Z,0.97
2017-08-14T06:49:31.220Z,1.00
2017-08-14T06:51:58.732Z,1.07
2017-08-14T06:54:26.985Z,0.90
2017-08-14T06:56:54.507Z,0.70
2017-08-14T06:59:21.997Z,0.70
2017-08-14T07:01:49.486Z,0.50
2017-08-14T07:04:17.751Z,0.83
2017-08-14T07:06:45.998Z,0.70
2017-08-14T07:09:13.544Z,0.70
2017-08-14T07:11:41.036Z,0.77
2017-08-14T07:14:08.508Z,0.60
2017-08-14T07:16:36.018Z,0.80
2017-08-14T07:19:03.500Z,0.90
2017-08-14T07:21:31.016Z,0.80
2017-08-14T07:23:58.524Z,1.20
2017-08-14T07:26:26.006Z,0.90
2017-08-14T07:28:53.530Z,1.63
2017-08-14T07:31:21.783Z,1.20
2017-08-14T07:33:49.679Z,1.20
2017-08-14T07:36:17.927Z,0.93
2017-08-14T07:38:45.414Z,0.90
2017-08-14T07:41:13.689Z,1.17
2017-08-14T07:43:41.215Z,0.80
2017-08-14T07:46:08.704Z,0.90
2017-08-14T07:48:36.963Z,1.47
2017-08-14T07:51:04.491Z,1.40
2017-08-14T07:53:31.984Z,1.27
2017-08-14T07:56:00.250Z,1.30
2017-08-14T07:58:27.739Z,1.20
2017-08-14T08:00:55.250Z,1.13
2017-08-14T08:03:22.733Z,1.20
2017-08-14T08:05:51.024Z,0.90
2017-08-14T08:08:18.551Z,0.90
2017-08-14T08:10:46.808Z,1.20
2017-08-14T08:13:14.298Z,0.80
2017-08-14T08:15:42.576Z,0.97
2017-08-14T08:18:10.843Z,1.13
2017-08-14T08:20:39.105Z,0.93
2017-08-14T08:23:07.732Z,0.70
2017-08-14T08:25:35.224Z,0.63
2017-08-14T08:28:02.726Z,0.70
2017-08-14T08:30:30.230Z,0.70
2017-08-14T08:32:57.720Z,0.70
2017-08-14T08:35:25.244Z,0.60
2017-08-14T08:37:52.731Z,0.70
2017-08-14T08:40:20.998Z,0.50
2017-08-14T08:42:48.494Z,0.60
2017-08-14T08:45:16.349Z,0.70
2017-08-14T08:47:44.060Z,0.70
2017-08-14T08:50:11.549Z,1.20
2017-08-14T08:52:39.825Z,1.07
2017-08-14T08:55:08.079Z,1.30
2017-08-14T08:57:36.968Z,1.57
2017-08-14T09:00:04.451Z,1.10
2017-08-14T09:02:32.703Z,1.03
2017-08-14T09:05:00.222Z,0.70
2017-08-14T09:07:27.703Z,0.70
2017-08-14T09:09:55.214Z,1.20
2017-08-14T09:12:22.748Z,0.70
2017-08-14T09:14:51.094Z,0.70
2017-08-14T09:17:18.588Z,0.70
2017-08-14T09:19:46.864Z,1.17
2017-08-14T09:22:15.180Z,1.17
2017-08-14T09:24:42.700Z,1.00
2017-08-14T09:27:10.182Z,1.03
2017-08-14T09:29:37.719Z,0.70
2017-08-14T09:32:05.212Z,0.90
2017-08-14T09:34:32.763Z,2.20
2017-08-14T09:37:00.299Z,1.50
2017-08-14T09:39:27.787Z,1.93
2017-08-14T09:41:55.316Z,1.63
2017-08-14T09:44:22.807Z,1.73
2017-08-14T09:46:50.644Z,1.47
2017-08-14T09:49:18.468Z,1.40
2017-08-14T09:51:46.238Z,1.07
2017-08-14T09:54:13.755Z,1.03
2017-08-14T09:56:41.301Z,0.90
2017-08-14T09:59:08.791Z,1.20
2017-08-14T10:01:36.280Z,1.17
2017-08-14T10:04:03.782Z,0.90
2017-08-14T10:06:31.268Z,0.90
2017-08-14T10:08:59.581Z,1.33
2017-08-14T10:11:27.069Z,0.87
2017-08-14T10:13:54.563Z,0.60
2017-08-14T10:16:22.842Z,1.00
2017-08-14T10:18:51.103Z,0.90
2017-08-14T10:21:19.387Z,1.00
2017-08-14T10:23:46.906Z,0.70
2017-08-14T10:26:14.412Z,0.77
2017-08-14T10:28:41.914Z,1.30
2017-08-14T10:31:09.432Z,1.00
2017-08-14T10:33:36.934Z,1.27
2017-08-14T10:36:04.447Z,0.70
2017-08-14T10:38:31.938Z,1.03
2017-08-14T10:40:59.456Z,1.50
2017-08-14T10:43:26.991Z,1.40
2017-08-14T10:45:54.493Z,1.70
2017-08-14T10:48:21.983Z,1.87
2017-08-14T10:50:49.488Z,1.40
2017-08-14T10:53:16.971Z,1.20
2017-08-14T10:55:44.487Z,1.40
2017-08-14T10:58:12.774Z,1.07
2017-08-14T11:00:40.259Z,1.70
2017-08-14T11:03:07.784Z,1.20
2017-08-14T11:05:35.311Z,1.33
2017-08-14T11:08:02.791Z,1.00
2017-08-14T11:10:31.069Z,0.90
2017-08-14T11:12:59.331Z,1.10
2017-08-14T11:15:27.619Z,0.80
2017-08-14T11:17:55.882Z,0.70
2017-08-14T11:20:24.143Z,0.90
2017-08-14T11:22:51.672Z,0.73
2017-08-14T11:25:19.170Z,0.80
2017-08-14T11:27:46.692Z,0.63
2017-08-14T11:30:14.201Z,0.90
2017-08-14T11:32:41.719Z,0.80
2017-08-14T11:35:09.238Z,0.73
2017-08-14T11:37:36.748Z,0.70
2017-08-14T11:40:05.018Z,0.77
2017-08-14T11:42:32.532Z,0.90
2017-08-14T11:45:00.113Z,0.73
2017-08-14T11:47:27.619Z,1.03
2017-08-14T11:49:55.113Z,1.57
2017-08-14T11:52:22.609Z,0.93
2017-08-14T11:54:50.868Z,0.90
2017-08-14T11:57:18.412Z,1.00
2017-08-14T11:59:45.896Z,0.80
2017-08-14T12:02:14.153Z,1.10
2017-08-14T12:04:41.676Z,0.90
2017-08-14T12:07:09.175Z,0.97
2017-08-14T12:09:36.699Z,0.80
2017-08-14T12:12:04.225Z,0.73
2017-08-14T12:14:31.730Z,0.73
2017-08-14T12:16:59.234Z,0.77
2017-08-14T12:19:26.777Z,0.70
2017-08-14T12:21:55.034Z,0.70
2017-08-14T12:24:22.524Z,0.57
2017-08-14T12:26:50.030Z,0.70
2017-08-14T12:29:17.560Z,0.70
2017-08-14T12:31:45.823Z,0.50
2017-08-14T12:34:13.312Z,0.70
2017-08-14T12:36:40.819Z,0.50
2017-08-14T12:39:08.331Z,1.00
2017-08-14T12:41:35.823Z,0.80
2017-08-14T12:44:03.318Z,0.80
2017-08-14T12:46:30.815Z,1.30
2017-08-14T15:30:09.584Z,0.60
2017-08-14T15:32:43.474Z,0.70
2017-08-14T15:35:20.494Z,0.90
2017-08-14T15:37:48.223Z,1.03
2017-08-14T15:40:15.749Z,1.07
2017-08-14T15:42:43.245Z,1.10
2017-08-14T15:45:10.777Z,1.07
2017-08-14T15:47:38.269Z,1.03
2017-08-14T15:50:05.788Z,0.97
2017-08-14T15:52:33.307Z,0.97
2017-08-14T15:55:00.801Z,1.00
2017-08-14T15:57:28.352Z,0.83
2017-08-14T15:59:55.849Z,0.60
2017-08-14T16:02:23.519Z,0.80
2017-08-14T16:04:51.013Z,1.00
2017-08-14T16:07:18.538Z,1.10
2017-08-14T16:09:46.046Z,1.07
2017-08-14T16:12:14.337Z,1.00
2017-08-14T16:14:41.829Z,1.10
2017-08-14T16:17:09.373Z,1.10
2017-08-14T16:19:44.662Z,0.90
2017-08-14T16:22:12.958Z,1.07
2017-08-14T16:24:40.498Z,1.00
2017-08-14T16:27:08.017Z,0.97
2017-08-14T16:29:35.513Z,0.80
2017-08-14T16:32:03.029Z,0.67
2017-08-14T16:34:30.521Z,0.90
2017-08-14T16:36:58.853Z,0.80
2017-08-14T16:39:26.411Z,0.70
2017-08-14T16:41:53.904Z,0.90
2017-08-14T16:44:21.425Z,0.63
2017-08-14T16:46:48.929Z,0.70
2017-08-14T16:49:17.221Z,0.80
2017-08-14T16:51:44.713Z,0.73
2017-08-14T16:54:12.231Z,0.80
2017-08-14T16:56:39.746Z,0.60
2017-08-14T16:59:07.246Z,0.90
2017-08-14T17:01:34.778Z,0.50
2017-08-14T17:04:02.273Z,0.50
2017-08-14T17:06:29.803Z,0.60
2017-08-14T17:08:57.321Z,0.60
2017-08-14T17:11:24.840Z,0.67
2017-08-14T17:13:52.349Z,0.60
2017-08-14T17:16:19.854Z,0.57
2017-08-14T17:18:47.393Z,0.60
2017-08-14T17:21:15.652Z,0.70
2017-08-14T17:23:43.191Z,0.70
2017-08-14T17:26:10.693Z,0.67
2017-08-14T17:28:38.185Z,0.67
2017-08-14T17:31:05.705Z,0.63
2017-08-14T17:33:33.966Z,0.67
2017-08-14T17:36:02.245Z,0.77
2017-08-14T17:38:30.517Z,0.97
2017-08-14T17:40:58.793Z,0.60
2017-08-14T17:43:26.318Z,0.60
2017-08-14T17:45:53.831Z,0.90
2017-08-14T17:48:21.336Z,1.00
2017-08-14T17:50:48.866Z,0.90
2017-08-14T17:53:16.358Z,0.93
2017-08-14T17:55:43.915Z,1.00
2017-08-14T17:58:11.426Z,0.80
2017-08-14T18:00:38.925Z,0.77
2017-08-14T18:03:06.438Z,0.90
2017-08-14T18:05:33.943Z,1.10
2017-08-14T18:08:01.474Z,0.97
2017-08-14T18:10:28.994Z,1.10
2017-08-14T18:12:56.516Z,0.70
2017-08-14T18:15:24.014Z,0.80
2017-08-14T18:17:51.540Z,0.77
2017-08-14T18:20:19.808Z,0.80
2017-08-14T18:22:47.342Z,1.20
2017-08-14T18:25:14.861Z,1.00
2017-08-14T18:27:42.373Z,1.27
2017-08-14T18:30:09.874Z,1.00
2017-08-14T18:32:37.382Z,0.90
2017-08-14T18:35:05.174Z,1.00
2017-08-14T18:37:33.550Z,1.30
2017-08-14T18:40:01.814Z,0.90
2017-08-14T18:42:30.092Z,1.00
2017-08-14T18:44:57.646Z,1.07
2017-08-14T18:47:25.911Z,1.27
2017-08-14T18:49:53.421Z,1.13
2017-08-14T18:52:20.945Z,1.67
2017-08-14T18:54:49.222Z,1.40
2017-08-14T18:57:17.501Z,1.33
2017-08-14T18:59:45.026Z,1.60
2017-08-14T19:02:12.540Z,1.20
2017-08-14T19:04:40.074Z,2.10
2017-08-14T19:07:08.338Z,2.20
2017-08-14T19:09:38.010Z,2.37
2017-08-14T19:12:04.169Z,2.30
2017-08-14T19:14:32.468Z,2.33
2017-08-14T19:16:59.977Z,3.53
2017-08-14T19:19:27.469Z,5.03
2017-08-14T19:21:55.753Z,5.00
2017-08-14T19:24:23.249Z,4.20
2017-08-14T19:26:50.778Z,3.50
2017-08-14T19:29:18.290Z,3.73
2017-08-14T19:31:45.818Z,3.93
2017-08-14T19:34:13.320Z,3.70
2017-08-14T19:36:41.622Z,3.00
2017-08-14T19:39:09.154Z,2.93
2017-08-14T19:41:37.429Z,2.43
2017-08-14T19:44:05.721Z,1.97
2017-08-14T19:46:33.235Z,2.10
2017-08-14T19:49:00.773Z,2.03
2017-08-14T19:51:28.272Z,1.50
2017-08-14T19:53:56.555Z,1.17
2017-08-14T19:56:24.108Z,1.10
2017-08-14T19:58:52.381Z,0.97
2017-08-14T20:01:20.653Z,1.20
2017-08-14T20:03:48.165Z,1.10
2017-08-14T20:06:15.698Z,0.97
2017-08-14T20:08:43.197Z,0.70
2017-08-14T20:11:10.702Z,1.20
2017-08-14T20:13:38.209Z,0.90
2017-08-14T20:16:05.701Z,1.17
2017-08-14T20:18:33.228Z,2.57
2017-08-14T20:21:02.241Z,3.27
2017-08-14T20:23:30.513Z,2.10
2017-08-14T20:25:58.025Z,2.73
2017-08-14T20:28:25.538Z,1.40
2017-08-14T20:30:53.802Z,1.20
2017-08-14T20:33:21.332Z,1.40
2017-08-14T20:35:48.828Z,0.80
2017-08-14T20:38:17.102Z,1.37
2017-08-14T20:40:45.362Z,1.03
2017-08-14T20:43:12.885Z,1.20
2017-08-14T20:45:40.421Z,1.00
2017-08-14T20:48:07.929Z,1.10
2017-08-14T20:50:35.426Z,1.17
2017-08-14T20:53:02.952Z,0.97
2017-08-14T20:55:31.227Z,1.30
2017-08-14T20:57:59.507Z,1.40
2017-08-14T21:00:27.782Z,1.10
2017-08-14T21:02:55.290Z,1.03
2017-08-14T21:05:22.833Z,1.30
2017-08-14T21:07:50.337Z,1.30
2017-08-14T21:10:17.854Z,1.67
2017-08-14T21:12:45.345Z,1.40
2017-08-14T21:15:12.892Z,0.90
2017-08-14T21:17:40.387Z,1.30
2017-08-14T21:20:08.650Z,1.23
2017-08-14T21:22:36.945Z,1.60
2017-08-14T21:25:04.442Z,1.30
2017-08-14T21:27:31.928Z,1.00
2017-08-14T21:29:59.449Z,1.40
2017-08-14T21:32:26.957Z,1.10
2017-08-14T21:34:55.253Z,1.20
2017-08-14T21:37:22.750Z,1.47
2017-08-14T21:39:50.279Z,1.50
2017-08-14T21:42:17.820Z,1.70
2017-08-14T21:44:45.313Z,1.47
2017-08-14T21:47:13.674Z,1.30
2017-08-14T21:49:41.197Z,1.53
2017-08-14T21:52:09.480Z,1.30
2017-08-14T21:54:37.755Z,1.40
2017-08-14T21:57:06.013Z,2.03
2017-08-14T21:59:33.533Z,1.77
2017-08-14T22:02:01.037Z,1.60
2017-08-14T22:04:29.340Z,1.73
2017-08-14T22:06:56.873Z,1.70
2017-08-14T22:09:25.572Z,2.33
2017-08-14T22:11:53.060Z,1.83
2017-08-14T22:14:20.565Z,1.60
2017-08-14T22:16:48.833Z,1.80
2017-08-14T22:19:16.629Z,1.40
2017-08-14T22:21:44.123Z,1.90
2017-08-14T22:24:11.669Z,1.63
2017-08-14T22:26:39.165Z,1.60
2017-08-14T22:29:06.670Z,1.53
2017-08-14T22:31:34.213Z,1.60
2017-08-14T22:34:01.717Z,2.00
2017-08-14T22:36:29.215Z,1.40
2017-08-14T22:38:57.489Z,1.30
2017-08-14T22:41:25.759Z,1.47
2017-08-14T22:43:54.065Z,1.20
2017-08-14T22:46:21.565Z,1.30
2017-08-14T22:48:49.107Z,1.27
2017-08-14T22:51:16.592Z,1.63
2017-08-14T22:53:44.125Z,1.80
2017-08-14T22:56:11.622Z,1.23
2017-08-14T22:58:39.917Z,1.43
2017-08-14T23:01:07.418Z,1.60
2017-08-14T23:03:34.933Z,1.43
2017-08-14T23:06:02.453Z,1.23
2017-08-14T23:08:29.950Z,1.10
2017-08-14T23:10:57.504Z,1.40
2017-08-14T23:13:25.018Z,1.20
2017-08-14T23:15:52.516Z,1.37
2017-08-14T23:18:20.028Z,1.10
2017-08-14T23:20:47.538Z,1.30
2017-08-14T23:23:15.071Z,1.53
2017-08-14T23:25:43.341Z,1.40
2017-08-14T23:28:11.607Z,1.30
2017-08-14T23:30:39.895Z,1.23
2017-08-14T23:33:08.173Z,1.40
2017-08-14T23:35:35.701Z,1.50
2017-08-14T23:38:03.228Z,1.20
2017-08-14T23:40:30.740Z,1.10
2017-08-14T23:42:59.009Z,1.23
2017-08-14T23:45:31.363Z,1.00
2017-08-14T23:47:58.955Z,1.33
2017-08-14T23:50:26.473Z,1.30
2017-08-14T23:52:53.982Z,1.47
2017-08-14T23:55:21.489Z,1.10
2017-08-14T23:57:49.017Z,1.20
